Time;durP1;ratioP1;P1;durP2;ratioP2;P2;SDS_P1;SDS_P2;PMS_P1;PMS_P2;Temp;Humidity;BMP_temperature;BMP_pressure;BME280_temperature;BME280_humidity;BME280_pressure;Samples;Min_cycle;Max_cycle;Signal;HPM_P1;HPM_P2
2022/07/11 00:01:01;;;;;;;3.15;1.60;;;;;;;22.55;52.96;94638.59;5071573;28;20190;-77
2022/07/11 00:03:28;;;;;;;2.90;1.90;;;;;;;22.54;52.69;94637.00;5071276;28;20194;-77
2022/07/11 00:05:55;;;;;;;2.53;1.80;;;;;;;22.51;52.86;94638.22;5070803;28;20260;-78
2022/07/11 00:08:22;;;;;;;2.15;1.95;;;;;;;22.48;52.78;94641.25;5071182;28;20198;-78
2022/07/11 00:10:48;;;;;;;2.95;2.13;;;;;;;22.46;52.88;94643.28;5070589;28;20201;-79
2022/07/11 00:13:15;;;;;;;2.50;1.85;;;;;;;22.44;52.92;94645.28;5070933;28;20182;-78
2022/07/11 00:15:44;;;;;;;2.05;1.75;;;;;;;22.36;52.45;94631.72;5070835;28;20649;-79
2022/07/11 00:18:10;;;;;;;3.58;1.98;;;;;;;22.39;52.88;94639.91;5070662;28;20183;-79
2022/07/11 00:20:37;;;;;;;4.03;2.20;;;;;;;22.37;52.92;94644.56;5070834;28;20187;-77
2022/07/11 00:23:04;;;;;;;2.15;1.70;;;;;;;22.39;53.09;94654.75;5070880;28;20186;-79
2022/07/11 00:25:31;;;;;;;2.10;2.00;;;;;;;22.36;53.04;94655.16;5070538;28;20229;-79
2022/07/11 00:27:58;;;;;;;1.67;1.58;;;;;;;22.34;53.02;94657.19;5070818;28;20277;-80
2022/07/11 00:30:24;;;;;;;4.22;1.90;;;;;;;22.31;52.99;94661.00;5070125;28;20194;-80
2022/07/11 00:32:53;;;;;;;1.80;1.70;;;;;;;22.29;53.06;94663.06;5070997;28;20201;-81
2022/07/11 00:35:21;;;;;;;1.70;1.60;;;;;;;22.27;53.00;94665.84;5070980;28;20193;-81
2022/07/11 00:37:48;;;;;;;1.88;1.77;;;;;;;22.24;52.98;94666.28;5070683;28;20642;-79
2022/07/11 00:40:15;;;;;;;1.80;1.70;;;;;;;22.20;53.11;94665.09;5070067;28;20182;-78
2022/07/11 00:42:41;;;;;;;1.70;1.60;;;;;;;22.17;53.21;94664.72;5070439;28;20539;-79
2022/07/11 00:45:09;;;;;;;3.53;1.63;;;;;;;22.15;53.09;94658.91;5070730;28;20186;-79
2022/07/11 00:47:36;;;;;;;3.35;1.90;;;;;;;22.13;53.34;94656.53;5070341;28;20237;-79
2022/07/11 00:50:05;;;;;;;5.03;1.98;;;;;;;22.10;53.23;94656.13;5070227;28;20191;-79
2022/07/11 00:52:34;;;;;;;2.67;1.83;;;;;;;22.10;53.14;94661.31;5070467;28;20201;-77
2022/07/11 00:55:01;;;;;;;2.78;1.90;;;;;;;22.00;52.92;94646.16;5070065;28;20197;-77
2022/07/11 00:57:28;;;;;;;3.08;1.75;;;;;;;22.03;53.12;94669.19;5069985;28;20213;-81
2022/07/11 00:59:55;;;;;;;2.00;1.60;;;;;;;21.97;53.30;94652.56;5070347;28;20187;-80
2022/07/11 01:02:22;;;;;;;4.53;1.70;;;;;;;21.99;53.22;94670.63;5070090;28;20197;-78
2022/07/11 01:04:49;;;;;;;1.65;1.55;;;;;;;21.99;53.16;94668.81;5070344;28;20187;-78
2022/07/11 01:07:17;;;;;;;2.75;1.50;;;;;;;21.97;53.43;94667.41;5070524;28;20214;-77
2022/07/11 01:09:44;;;;;;;2.25;1.95;;;;;;;21.88;53.48;94659.03;5071165;28;20206;-80
2022/07/11 01:12:11;;;;;;;2.08;1.67;;;;;;;21.90;53.36;94661.44;5070368;28;20186;-78
2022/07/11 01:14:37;;;;;;;1.75;1.65;;;;;;;21.90;53.42;94661.44;5070270;28;20202;-78
2022/07/11 01:17:05;;;;;;;1.98;1.83;;;;;;;21.87;53.43;94659.25;5070484;28;20186;-78
2022/07/11 01:19:32;;;;;;;1.60;1.50;;;;;;;21.84;53.60;94657.06;5070093;28;20195;-80
2022/07/11 01:22:01;;;;;;;1.92;1.73;;;;;;;21.82;53.60;94662.47;5070438;28;20178;-80
2022/07/11 01:24:31;;;;;;;5.18;1.58;;;;;;;21.80;53.61;94661.88;5069625;28;20657;-81
2022/07/11 01:26:58;;;;;;;3.25;1.90;;;;;;;21.78;53.49;94666.50;5070108;28;20210;-81
2022/07/11 01:29:25;;;;;;;1.80;1.70;;;;;;;21.74;53.58;94665.31;5069472;28;20182;-80
2022/07/11 01:31:54;;;;;;;1.65;1.55;;;;;;;21.70;53.63;94664.94;5070235;28;20193;-79
2022/07/11 01:34:21;;;;;;;1.70;1.60;;;;;;;21.70;53.56;94667.53;5069881;28;20703;-81
2022/07/11 01:36:48;;;;;;;2.40;1.92;;;;;;;21.69;53.50;94662.53;5070057;28;20673;-77
2022/07/11 01:39:15;;;;;;;1.83;1.73;;;;;;;21.65;53.75;94664.75;5069748;28;20649;-78
2022/07/11 01:41:43;;;;;;;1.60;1.50;;;;;;;21.65;53.55;94659.56;5069310;28;20279;-80
2022/07/11 01:44:10;;;;;;;2.08;1.83;;;;;;;21.60;53.62;94655.97;5069814;28;20185;-77
2022/07/11 01:46:36;;;;;;;1.70;1.60;;;;;;;21.60;53.58;94658.59;5069806;28;20692;-79
2022/07/11 01:49:03;;;;;;;3.63;1.60;;;;;;;21.58;53.49;94660.56;5069232;28;20222;-78
2022/07/11 01:51:31;;;;;;;1.63;1.52;;;;;;;21.50;53.65;94648.59;5070145;28;20182;-80
2022/07/11 01:53:58;;;;;;;6.22;1.80;;;;;;;21.45;53.75;94649.22;5069703;28;20222;-79
2022/07/11 01:56:27;;;;;;;2.00;1.80;;;;;;;21.50;53.85;94662.44;5069433;28;20308;-77
2022/07/11 01:58:55;;;;;;;1.45;1.40;;;;;;;21.47;54.02;94660.22;5070051;28;20716;-77
2022/07/11 02:01:22;;;;;;;1.50;1.40;;;;;;;21.46;54.09;94663.00;5069654;28;20187;-79
2022/07/11 02:03:49;;;;;;;1.73;1.63;;;;;;;21.40;54.17;94654.22;5069660;28;20218;-80
2022/07/11 02:06:16;;;;;;;3.15;1.65;;;;;;;21.41;54.39;94662.84;5069237;28;20226;-80
2022/07/11 02:08:43;;;;;;;1.67;1.58;;;;;;;21.36;54.29;94655.66;5069468;28;21016;-81
2022/07/11 02:11:09;;;;;;;1.75;1.65;;;;;;;21.36;54.32;94662.66;5072350;28;20193;-82
2022/07/11 02:13:36;;;;;;;1.92;1.38;;;;;;;21.37;54.39;94670.25;5073585;28;20588;-81
2022/07/11 02:16:06;;;;;;;1.80;1.70;;;;;;;21.36;54.30;94676.47;5073151;28;20588;-82
2022/07/11 02:18:34;;;;;;;2.10;1.60;;;;;;;21.20;54.44;94650.84;5073371;28;20195;-80
2022/07/11 02:21:02;;;;;;;1.55;1.45;;;;;;;21.30;54.64;94667.66;5073354;28;20193;-77
2022/07/11 02:23:29;;;;;;;6.75;1.58;;;;;;;21.31;54.73;94673.66;5072939;28;20190;-80
2022/07/11 02:25:56;;;;;;;2.10;1.38;;;;;;;21.27;54.86;94678.44;5072897;28;20282;-79
2022/07/11 02:28:22;;;;;;;1.70;1.60;;;;;;;21.28;54.78;94692.25;5072735;28;20572;-78
2022/07/11 02:30:49;;;;;;;1.92;1.65;;;;;;;21.26;54.74;94694.28;5073341;28;20182;-77
2022/07/11 02:33:18;;;;;;;1.90;1.60;;;;;;;21.22;54.73;94693.88;5073045;28;20190;-77
2022/07/11 02:35:45;;;;;;;2.45;1.63;;;;;;;21.22;54.75;94693.09;5073192;28;20182;-76
2022/07/11 02:38:12;;;;;;;1.83;1.73;;;;;;;21.20;54.84;94692.47;5072790;28;20600;-78
2022/07/11 02:40:39;;;;;;;3.77;1.57;;;;;;;21.20;54.98;94697.66;5072637;28;20205;-78
2022/07/11 02:43:06;;;;;;;1.60;1.50;;;;;;;21.16;55.07;94694.69;5072701;28;20198;-78
2022/07/11 02:45:33;;;;;;;1.50;1.40;;;;;;;21.15;54.71;94695.69;5072848;28;20187;-79
2022/07/11 02:48:00;;;;;;;1.67;1.58;;;;;;;21.15;54.75;94693.06;5072256;28;20226;-80
2022/07/11 02:50:28;;;;;;;1.80;1.70;;;;;;;21.03;54.70;94682.53;5072669;28;20190;-80
2022/07/11 02:52:55;;;;;;;3.10;1.80;;;;;;;21.10;54.63;94689.50;5072296;28;20209;-79
2022/07/11 02:55:22;;;;;;;1.67;1.57;;;;;;;21.05;54.72;94684.91;5072094;28;20206;-78
2022/07/11 02:57:49;;;;;;;2.58;1.33;;;;;;;21.03;54.53;94689.53;5072328;28;20205;-80
2022/07/11 03:00:18;;;;;;;2.08;1.98;;;;;;;20.92;54.42;94677.13;5072499;28;20190;-80
2022/07/11 03:02:45;;;;;;;2.00;1.83;;;;;;;21.00;54.59;94698.50;5072185;28;20201;-80
2022/07/11 03:05:12;;;;;;;2.63;1.60;;;;;;;20.99;54.79;94693.53;5072652;28;20194;-81
2022/07/11 03:07:41;;;;;;;1.67;1.57;;;;;;;20.90;54.44;94681.75;5072058;28;20653;-78
2022/07/11 03:10:08;;;;;;;2.67;1.70;;;;;;;20.98;54.46;94697.94;5071950;28;20201;-79
2022/07/11 03:12:35;;;;;;;1.90;1.60;;;;;;;20.98;54.65;94692.72;5072203;28;20748;-80
2022/07/11 03:15:02;;;;;;;1.77;1.57;;;;;;;20.95;54.52;94693.13;5071994;28;20194;-80
2022/07/11 03:17:29;;;;;;;3.83;1.83;;;;;;;20.97;54.73;94701.50;5072195;28;20206;-79
2022/07/11 03:19:56;;;;;;;1.98;1.70;;;;;;;20.99;54.50;94709.13;5071817;28;20197;-80
2022/07/11 03:22:23;;;;;;;3.90;1.60;;;;;;;20.97;54.44;94711.91;5070355;28;20197;-80
2022/07/11 03:24:51;;;;;;;4.70;1.70;;;;;;;21.00;54.48;94710.72;5071910;28;20244;-78
2022/07/11 03:27:18;;;;;;;2.08;1.60;;;;;;;21.02;54.63;94714.69;5071822;28;20229;-79
2022/07/11 03:29:45;;;;;;;1.75;1.65;;;;;;;21.04;54.69;94706.72;5072055;28;20186;-80
2022/07/11 03:32:12;;;;;;;1.85;1.63;;;;;;;21.07;54.77;94711.53;5072013;28;20182;-79
2022/07/11 03:34:39;;;;;;;1.65;1.55;;;;;;;21.08;54.78;94710.50;5071512;28;20190;-80
2022/07/11 03:37:07;;;;;;;1.70;1.58;;;;;;;21.11;54.79;94712.69;5071117;28;20190;-80
2022/07/11 03:39:34;;;;;;;2.17;1.65;;;;;;;21.15;54.94;94716.47;5071502;28;20197;-79
2022/07/11 03:42:02;;;;;;;1.70;1.60;;;;;;;21.17;54.80;94724.91;5071553;28;20194;-80
2022/07/11 03:44:29;;;;;;;4.28;1.67;;;;;;;21.18;54.95;94723.09;5071417;28;20194;-79
2022/07/11 03:46:55;;;;;;;2.00;1.67;;;;;;;21.23;54.45;94725.88;5071477;28;20218;-79
2022/07/11 03:49:22;;;;;;;1.60;1.50;;;;;;;21.26;54.78;94728.09;5071350;28;20246;-80
2022/07/11 03:51:49;;;;;;;2.08;1.80;;;;;;;21.23;54.73;94729.28;5071153;28;20206;-80
2022/07/11 03:54:16;;;;;;;3.20;1.70;;;;;;;21.32;54.81;94736.91;5071836;28;20179;-79
2022/07/11 03:56:43;;;;;;;7.68;2.15;;;;;;;21.34;54.79;94742.72;5070854;28;20665;-80
2022/07/11 03:59:11;;;;;;;2.20;2.00;;;;;;;21.32;54.56;94739.50;5071724;28;20214;-78
2022/07/11 04:01:38;;;;;;;4.70;1.77;;;;;;;21.40;54.28;94741.91;5070884;28;20277;-79
2022/07/11 04:04:08;;;;;;;1.90;1.80;;;;;;;21.41;54.35;94740.88;5071449;28;20186;-78
2022/07/11 04:06:35;;;;;;;3.08;1.70;;;;;;;21.41;54.33;94741.69;5070656;28;20218;-79
2022/07/11 04:09:04;;;;;;;2.30;1.80;;;;;;;21.53;54.12;94755.69;5071349;28;20201;-78
2022/07/11 04:11:31;;;;;;;3.08;1.55;;;;;;;21.58;54.00;94756.88;5070752;28;20285;-77
2022/07/11 04:13:57;;;;;;;2.13;1.77;;;;;;;21.68;53.88;94760.66;5071091;28;20197;-80
2022/07/11 04:16:26;;;;;;;1.80;1.65;;;;;;;21.78;53.85;94752.41;5070812;28;20190;-78
2022/07/11 04:18:52;;;;;;;2.20;1.90;;;;;;;21.89;53.51;94751.78;5070709;28;20187;-79
2022/07/11 04:21:19;;;;;;;2.20;1.63;;;;;;;21.96;53.73;94760.34;5071224;28;20194;-79
2022/07/11 04:23:46;;;;;;;7.00;1.95;;;;;;;22.01;53.60;94760.53;5071336;28;20187;-80
2022/07/11 04:26:13;;;;;;;3.40;1.70;;;;;;;22.04;53.31;94765.34;5070287;28;20193;-79
2022/07/11 04:28:40;;;;;;;2.72;1.50;;;;;;;22.05;53.45;94759.13;5070357;28;20182;-81
2022/07/11 04:31:07;;;;;;;2.00;1.88;;;;;;;22.11;53.50;94754.91;5065673;28;20566;-81
2022/07/11 04:33:35;;;;;;;1.75;1.65;;;;;;;22.17;53.59;94766.31;5062581;28;20190;-86
2022/07/11 04:36:02;;;;;;;3.00;1.52;;;;;;;22.22;53.52;94756.88;5071447;28;20570;-84
2022/07/11 04:38:29;;;;;;;2.17;2.05;;;;;;;22.26;53.54;94765.06;5071085;28;20565;-84
2022/07/11 04:40:55;;;;;;;5.78;1.98;;;;;;;22.31;53.54;94764.44;5071114;28;20186;-81
2022/07/11 04:43:22;;;;;;;1.85;1.75;;;;;;;22.35;53.24;94765.63;5070551;28;20290;-81
2022/07/11 04:45:49;;;;;;;2.78;2.08;;;;;;;22.34;53.33;94751.81;5070822;28;20217;-82
2022/07/11 04:48:16;;;;;;;3.17;1.85;;;;;;;22.32;53.15;94755.63;5070784;28;20612;-77
2022/07/11 04:50:45;;;;;;;2.97;1.98;;;;;;;22.46;53.09;94763.16;5070366;28;20186;-78
2022/07/11 04:53:13;;;;;;;2.80;1.90;;;;;;;22.52;52.73;94769.34;5070115;28;20406;-77
2022/07/11 04:55:41;;;;;;;2.58;2.00;;;;;;;22.52;52.75;94759.72;5070892;28;20197;-82
2022/07/11 04:58:09;;;;;;;2.20;2.00;;;;;;;22.57;52.59;94769.50;5070717;28;20201;-83
2022/07/11 05:00:36;;;;;;;2.75;1.65;;;;;;;22.58;52.51;94762.47;5071905;28;20178;-84
2022/07/11 05:03:03;;;;;;;6.43;2.45;;;;;;;22.64;52.44;94769.47;5055436;28;20197;-83
2022/07/11 05:05:30;;;;;;;1.98;1.77;;;;;;;22.68;52.47;94774.06;5057945;28;20562;-81
2022/07/11 05:07:58;;;;;;;6.57;2.00;;;;;;;22.74;52.33;94777.63;5059482;28;20217;-76
2022/07/11 05:10:25;;;;;;;3.65;1.98;;;;;;;22.60;52.29;94744.84;5070634;28;20227;-86
2022/07/11 05:12:52;;;;;;;2.60;2.05;;;;;;;22.79;52.50;94773.38;5074376;28;20186;-82
2022/07/11 05:15:19;;;;;;;8.13;2.42;;;;;;;23.07;58.39;94779.25;5056020;28;20278;-78
2022/07/11 05:17:46;;;;;;;10.68;2.60;;;;;;;23.45;61.25;94789.56;5063291;28;20182;-76
2022/07/11 05:20:12;;;;;;;9.52;2.85;;;;;;;23.87;60.44;94785.31;5071238;28;20189;-77
2022/07/11 05:22:39;;;;;;;7.43;2.30;;;;;;;24.44;59.52;94790.31;5070949;28;20194;-76
2022/07/11 05:25:08;;;;;;;15.35;2.55;;;;;;;25.03;59.48;94789.44;5070592;28;20240;-76
2022/07/11 05:27:35;;;;;;;4.38;2.78;;;;;;;25.68;58.18;94793.84;5073397;28;20225;-77
2022/07/11 05:30:02;;;;;;;8.23;2.65;;;;;;;26.35;56.60;94790.00;5072216;28;20179;-79
2022/07/11 05:32:29;;;;;;;6.93;2.70;;;;;;;27.02;55.29;94788.31;5071596;28;20194;-77
2022/07/11 05:34:56;;;;;;;9.55;2.40;;;;;;;27.68;52.98;94790.41;5070135;28;20190;-79
2022/07/11 05:37:23;;;;;;;5.20;1.90;;;;;;;28.32;51.23;94793.31;5070156;28;20233;-78
2022/07/11 05:39:50;;;;;;;3.03;1.70;;;;;;;28.91;49.17;94796.06;5070073;28;20194;-82
2022/07/11 05:42:18;;;;;;;7.95;2.05;;;;;;;29.59;47.72;94798.25;5069587;28;20278;-80
2022/07/11 05:44:45;;;;;;;4.25;1.83;;;;;;;30.12;46.02;94791.13;5070919;28;20510;-81
2022/07/11 05:47:12;;;;;;;3.15;1.50;;;;;;;30.72;44.93;94803.78;5073755;28;20229;-81
2022/07/11 05:49:39;;;;;;;9.93;2.22;;;;;;;31.21;43.81;94802.50;5074349;28;20190;-76
2022/07/11 05:52:06;;;;;;;6.80;1.75;;;;;;;31.77;42.89;94801.69;5073951;28;20197;-79
2022/07/11 05:54:33;;;;;;;4.95;1.67;;;;;;;32.22;41.50;94804.25;5074170;28;20183;-75
2022/07/11 05:57:01;;;;;;;4.97;1.50;;;;;;;32.63;40.68;94809.34;5073871;28;20202;-76
2022/07/11 05:59:29;;;;;;;6.35;1.92;;;;;;;33.02;39.04;94821.09;5073839;28;20198;-76
2022/07/11 06:01:57;;;;;;;8.48;1.90;;;;;;;33.36;36.95;94810.50;5073656;28;20189;-76
2022/07/11 06:04:24;;;;;;;10.80;1.95;;;;;;;33.61;36.85;94805.00;5073132;28;20190;-75
2022/07/11 06:06:50;;;;;;;10.77;2.00;;;;;;;33.97;37.20;94812.63;5072292;28;20269;-75
2022/07/11 06:09:16;;;;;;;3.13;1.90;;;;;;;34.26;36.97;94809.13;5072668;28;20191;-74
2022/07/11 06:11:43;;;;;;;12.80;2.03;;;;;;;34.53;36.21;94811.19;5070929;28;20236;-77
2022/07/11 06:14:10;;;;;;;4.75;2.30;;;;;;;34.80;35.69;94823.84;5070413;28;20192;-76
2022/07/11 06:16:38;;;;;;;3.25;1.60;;;;;;;35.01;35.24;94814.53;5069472;28;20240;-78
2022/07/11 06:19:05;;;;;;;5.63;1.65;;;;;;;35.23;35.33;94816.59;5070691;28;20190;-75
2022/07/11 06:21:33;;;;;;;3.83;1.50;;;;;;;35.44;34.49;94814.38;5071131;28;20194;-79
2022/07/11 06:24:00;;;;;;;8.75;1.50;;;;;;;35.58;33.55;94819.78;5070378;28;20194;-78
2022/07/11 06:26:27;;;;;;;1.70;1.60;;;;;;;35.83;33.51;94831.84;5069472;28;20200;-76
2022/07/11 06:28:54;;;;;;;4.05;1.52;;;;;;;35.99;32.65;94833.19;5070605;28;20233;-78
2022/07/11 06:31:21;;;;;;;2.40;1.65;;;;;;;36.14;32.63;94826.78;5071651;28;20198;-78
2022/07/11 06:33:54;;;;;;;3.92;1.92;;;;;;;36.27;32.78;94826.00;5072080;28;20193;-77
2022/07/11 06:36:22;;;;;;;3.53;1.52;;;;;;;36.42;33.03;94824.91;5069958;28;20641;-79
2022/07/11 06:38:49;;;;;;;5.10;1.50;;;;;;;36.57;32.54;94823.81;5067462;28;20207;-76
2022/07/11 06:41:16;;;;;;;2.38;1.40;;;;;;;36.63;31.91;94815.41;5072410;28;20199;-78
2022/07/11 06:43:43;;;;;;;5.63;1.52;;;;;;;36.84;31.66;94829.09;5069333;28;20199;-78
2022/07/11 06:46:10;;;;;;;2.75;1.63;;;;;;;36.95;31.57;94835.00;5071931;28;20186;-78
2022/07/11 06:48:37;;;;;;;2.63;1.30;;;;;;;37.05;31.28;94823.31;5069368;28;20703;-79
2022/07/11 06:51:05;;;;;;;2.85;1.67;;;;;;;37.11;31.31;94817.56;5068487;28;20194;-75
2022/07/11 06:53:34;;;;;;;1.33;1.25;;;;;;;37.15;31.60;94809.75;5072036;28;20198;-77
2022/07/11 06:56:01;;;;;;;3.28;1.63;;;;;;;37.34;31.53;94812.25;5066756;28;20204;-75
2022/07/11 06:58:34;;;;;;;1.63;1.30;;;;;;;37.36;30.49;94810.84;5067828;28;20189;-76
2022/07/11 07:01:02;;;;;;;2.15;1.30;;;;;;;37.34;30.52;94790.91;5070134;28;20573;-77
2022/07/11 07:03:30;;;;;;;2.22;1.60;;;;;;;37.57;30.14;94813.06;5069340;28;20190;-77
2022/07/11 07:05:57;;;;;;;2.22;1.30;;;;;;;37.62;29.91;94820.94;5068310;28;20658;-78
2022/07/11 07:08:27;;;;;;;2.33;1.42;;;;;;;37.66;29.83;94817.34;5071350;28;20297;-77
2022/07/11 07:10:54;;;;;;;3.25;1.17;;;;;;;37.65;29.20;94809.63;5067901;28;20199;-79
2022/07/11 07:13:25;;;;;;;2.08;1.55;;;;;;;37.67;29.35;94815.47;5066054;28;20277;-77
2022/07/11 07:15:52;;;;;;;2.30;1.27;;;;;;;37.70;29.55;94806.84;5067960;28;20202;-76
2022/07/11 07:18:19;;;;;;;1.40;1.30;;;;;;;37.68;29.74;94806.34;5069728;28;20657;-78
2022/07/11 07:20:46;;;;;;;1.95;1.40;;;;;;;37.79;29.42;94815.69;5070660;28;20205;-80
2022/07/11 07:23:13;;;;;;;1.25;1.15;;;;;;;37.83;29.44;94811.31;5070808;28;20194;-76
2022/07/11 07:25:41;;;;;;;3.25;1.48;;;;;;;37.84;29.54;94812.88;5066173;28;20202;-75
2022/07/11 07:28:08;;;;;;;2.78;1.15;;;;;;;37.84;29.45;94817.44;5071232;28;20221;-78
2022/07/11 07:30:35;;;;;;;3.75;1.50;;;;;;;37.89;29.91;94814.66;5067916;28;20202;-79
2022/07/11 07:33:02;;;;;;;4.90;1.70;;;;;;;37.90;30.26;94814.31;5068692;28;20194;-78
2022/07/11 07:35:29;;;;;;;1.63;1.45;;;;;;;37.94;30.31;94811.06;5069904;28;20580;-77
2022/07/11 07:37:56;;;;;;;5.07;1.88;;;;;;;37.92;30.33;94813.25;5071445;28;20187;-78
2022/07/11 07:40:23;;;;;;;2.05;1.10;;;;;;;37.91;29.86;94804.44;5067727;28;20191;-76
2022/07/11 07:42:51;;;;;;;2.53;1.70;;;;;;;37.88;30.35;94815.75;5069921;28;20289;-76
2022/07/11 07:45:18;;;;;;;3.33;1.23;;;;;;;37.84;30.35;94801.41;5070879;28;20202;-76
2022/07/11 07:47:45;;;;;;;3.10;1.50;;;;;;;37.83;29.80;94807.84;5070372;28;20226;-79
2022/07/11 07:50:12;;;;;;;4.85;1.70;;;;;;;37.83;29.85;94807.84;5069983;28;20212;-77
2022/07/11 07:52:39;;;;;;;1.55;1.10;;;;;;;37.81;30.32;94812.69;5065596;28;20194;-76
2022/07/11 07:55:07;;;;;;;1.40;1.15;;;;;;;37.77;30.35;94806.38;5068817;28;20201;-76
2022/07/11 07:57:34;;;;;;;1.77;1.38;;;;;;;37.74;30.43;94813.16;5068861;28;20198;-76
2022/07/11 08:02:48;;;;;;;4.68;1.48;;;;;;;37.70;30.35;94819.38;5066819;28;20185;-78
2022/07/11 08:05:15;;;;;;;1.30;0.93;;;;;;;37.58;30.33;94811.97;5070193;28;20186;-78
2022/07/11 08:07:42;;;;;;;1.70;1.20;;;;;;;37.57;30.26;94821.84;5069385;28;20206;-78
2022/07/11 08:10:10;;;;;;;1.83;1.58;;;;;;;37.44;30.20;94817.38;5069564;28;20204;-78
2022/07/11 08:12:37;;;;;;;1.00;1.00;;;;;;;37.42;30.23;94833.66;5066904;28;20294;-79
2022/07/11 08:15:07;;;;;;;3.25;1.45;;;;;;;37.33;30.27;94827.47;5069233;28;20263;-78
2022/07/11 08:17:34;;;;;;;3.95;1.30;;;;;;;37.24;30.72;94823.16;5067375;28;20201;-79
2022/07/11 08:20:01;;;;;;;1.73;1.02;;;;;;;37.13;30.81;94826.06;5067685;28;20206;-77
2022/07/11 08:22:27;;;;;;;4.18;1.20;;;;;;;37.05;30.67;94824.13;5067315;28;20194;-77
2022/07/11 08:24:54;;;;;;;2.20;0.93;;;;;;;36.97;31.22;94818.72;5069737;28;20194;-78
2022/07/11 08:27:21;;;;;;;1.45;1.33;;;;;;;36.89;31.18;94822.88;5067626;28;20588;-76
2022/07/11 08:29:48;;;;;;;3.25;1.35;;;;;;;36.78;31.16;94819.63;5066764;28;20325;-79
2022/07/11 08:32:19;;;;;;;2.78;1.10;;;;;;;36.67;31.07;94813.75;5063674;28;20198;-74
2022/07/11 08:34:46;;;;;;;1.10;1.10;;;;;;;36.50;30.87;94807.47;5069831;28;20557;-75
2022/07/11 08:37:13;;;;;;;1.35;1.23;;;;;;;36.40;30.77;94813.72;5068727;28;20249;-74
2022/07/11 08:39:40;;;;;;;2.05;1.15;;;;;;;36.28;30.71;94813.47;5067104;28;20190;-80
2022/07/11 08:42:07;;;;;;;1.52;1.17;;;;;;;36.15;31.02;94820.38;5064392;28;20685;-76
2022/07/11 08:44:35;;;;;;;0.95;0.95;;;;;;;36.02;31.23;94808.63;5065766;28;20194;-77
2022/07/11 08:47:03;;;;;;;1.90;1.10;;;;;;;35.83;30.54;94816.66;5069861;28;20202;-80
2022/07/11 08:49:32;;;;;;;1.05;0.98;;;;;;;35.68;30.97;94814.28;5066180;28;20322;-78
2022/07/11 08:51:59;;;;;;;1.13;1.05;;;;;;;35.43;31.01;94802.19;5069585;28;20664;-77
2022/07/11 08:54:26;;;;;;;1.20;0.90;;;;;;;35.44;31.19;94825.03;5068179;28;20198;-75
2022/07/11 08:56:55;;;;;;;1.88;1.10;;;;;;;35.33;30.74;94823.63;5068295;28;20205;-78
2022/07/11 08:59:24;;;;;;;1.60;1.40;;;;;;;35.07;31.00;94799.31;5067525;28;20251;-76
2022/07/11 09:01:54;;;;;;;1.15;1.10;;;;;;;34.88;31.83;94792.09;5069665;28;20190;-80
2022/07/11 09:04:24;;;;;;;1.48;1.30;;;;;;;34.96;31.78;94819.91;5066564;28;20194;-76
2022/07/11 09:06:52;;;;;;;1.13;1.10;;;;;;;34.83;31.64;94821.41;5068068;28;20210;-78
2022/07/11 09:09:19;;;;;;;1.52;1.10;;;;;;;34.72;31.92;94825.31;5068621;28;20263;-75
2022/07/11 09:11:51;;;;;;;1.45;1.00;;;;;;;34.59;32.01;94826.00;5064491;28;20202;-74
2022/07/11 09:14:28;;;;;;;0.90;0.80;;;;;;;34.45;32.30;94820.56;5067530;28;20210;-75
2022/07/11 09:16:57;;;;;;;1.00;0.90;;;;;;;34.34;31.86;94814.59;5068555;28;20568;-75
2022/07/11 09:19:25;;;;;;;1.10;1.00;;;;;;;34.19;31.59;94820.84;5065189;28;20626;-76
2022/07/11 09:27:56;;;;;;;3.13;1.30;;;;;;;33.77;32.59;94831.38;5006915;28;20322;-75
2022/07/11 09:30:26;;;;;;;2.25;1.00;;;;;;;33.64;32.35;94835.50;5007191;28;20690;-76
2022/07/11 09:33:01;;;;;;;0.90;0.90;;;;;;;33.52;32.42;94825.25;5006901;28;20188;-76
2022/07/11 09:35:31;;;;;;;1.98;1.00;;;;;;;33.40;32.90;94830.88;5005241;28;20216;-75
2022/07/11 09:37:59;;;;;;;2.00;1.17;;;;;;;33.28;33.13;94834.94;5006927;28;20200;-76
2022/07/11 09:40:26;;;;;;;0.93;0.93;;;;;;;33.16;32.77;94824.69;5007064;28;20199;-77
2022/07/11 09:42:55;;;;;;;12.10;1.33;;;;;;;33.06;32.48;94825.56;5007001;28;20258;-77
2022/07/11 09:45:24;;;;;;;3.65;1.20;;;;;;;32.92;32.79;94829.91;5007119;28;20251;-77
2022/07/11 09:47:52;;;;;;;2.28;1.17;;;;;;;32.63;32.87;94813.88;5006528;28;20223;-77
2022/07/11 09:50:20;;;;;;;0.98;0.90;;;;;;;32.67;33.17;94834.25;5007344;28;20200;-76
2022/07/11 09:53:05;;;;;;;2.08;1.05;;;;;;;32.47;33.18;94813.97;5005952;28;20254;-77
2022/07/11 09:55:33;;;;;;;1.10;1.10;;;;;;;32.44;33.38;94819.00;5006812;28;20202;-76
2022/07/11 09:58:00;;;;;;;2.55;1.17;;;;;;;32.30;31.89;94804.72;5006718;28;20196;-78
2022/07/11 10:00:27;;;;;;;1.60;1.42;;;;;;;32.18;32.91;94824.38;5006558;28;20239;-78
2022/07/11 10:02:56;;;;;;;1.35;1.00;;;;;;;32.08;32.74;94832.34;5016786;28;20273;-77
2022/07/11 10:05:22;;;;;;;1.48;1.02;;;;;;;31.97;33.20;94828.94;5066324;28;20685;-75
2022/07/11 10:07:49;;;;;;;1.67;1.27;;;;;;;31.88;33.41;94832.41;5068385;28;20190;-76
2022/07/11 10:10:18;;;;;;;2.25;1.00;;;;;;;31.45;34.21;94781.66;5068665;28;20218;-77
2022/07/11 10:12:46;;;;;;;1.67;1.20;;;;;;;31.67;33.86;94819.16;5068298;28;20664;-81
2022/07/11 10:15:16;;;;;;;1.48;1.38;;;;;;;31.64;33.80;94818.91;5065774;28;20275;-82
2022/07/11 10:17:53;;;;;;;2.20;1.20;;;;;;;31.47;33.73;94808.59;5066432;28;20183;-78
2022/07/11 10:20:27;;;;;;;1.80;1.30;;;;;;;31.50;34.41;94831.09;5065622;28;20265;-79
2022/07/11 10:23:02;;;;;;;2.00;1.48;;;;;;;31.43;34.42;94831.34;5066370;28;20392;-82
2022/07/11 10:25:38;;;;;;;1.40;1.23;;;;;;;31.30;33.89;94819.44;5067357;28;20677;-77
2022/07/11 10:28:15;;;;;;;1.10;1.10;;;;;;;31.27;33.72;94830.53;5068398;28;20751;-81
2022/07/11 10:30:46;;;;;;;1.20;1.20;;;;;;;31.14;34.11;94815.22;5068154;28;20193;-83
2022/07/11 10:33:13;;;;;;;2.22;1.30;;;;;;;31.02;34.13;94818.09;5070679;28;20202;-79
2022/07/11 10:35:45;;;;;;;2.75;1.00;;;;;;;31.06;34.30;94837.66;5070989;28;20203;-79
2022/07/11 10:38:13;;;;;;;1.40;1.00;;;;;;;31.01;34.28;94840.28;5069045;28;20248;-82
2022/07/11 10:40:49;;;;;;;1.58;1.10;;;;;;;30.97;34.18;94841.88;5069794;28;20619;-78
2022/07/11 10:43:32;;;;;;;4.13;1.02;;;;;;;30.91;34.22;94840.25;5070110;28;20580;-80
2022/07/11 10:46:01;;;;;;;1.10;1.00;;;;;;;30.80;34.08;94828.91;5070326;28;20669;-80
2022/07/11 10:48:30;;;;;;;2.58;1.10;;;;;;;30.76;33.61;94830.47;5071526;28;20234;-80
2022/07/11 10:51:17;;;;;;;1.08;1.08;;;;;;;30.75;34.15;94836.81;5070633;28;20190;-80
2022/07/11 10:53:47;;;;;;;2.55;1.30;;;;;;;30.70;34.36;94828.81;5070373;28;20268;-81
2022/07/11 10:56:28;;;;;;;1.17;1.17;;;;;;;30.62;34.25;94835.41;5066062;28;20733;-83
2022/07/11 10:59:05;;;;;;;1.10;1.10;;;;;;;30.60;34.21;94840.16;5068482;28;20258;-80
2022/07/11 11:01:33;;;;;;;5.00;1.20;;;;;;;30.55;33.49;94826.94;5070386;28;20209;-78
2022/07/11 11:04:33;;;;;;;2.92;1.20;;;;;;;30.49;33.05;94836.69;5071024;28;20572;-82
2022/07/11 11:06:59;;;;;;;1.00;1.00;;;;;;;30.34;32.92;94834.00;5071718;28;20268;-79
2022/07/11 11:09:38;;;;;;;1.27;1.17;;;;;;;30.40;32.78;94845.38;5070010;28;20692;-81
2022/07/11 11:12:06;;;;;;;2.00;1.10;;;;;;;30.33;32.78;94836.91;5071141;28;20218;-79
2022/07/11 11:14:33;;;;;;;0.95;0.90;;;;;;;30.28;33.75;94835.03;5067618;28;20178;-84
2022/07/11 11:17:33;;;;;;;2.63;1.23;;;;;;;30.29;34.01;94839.25;5070440;28;20194;-78
2022/07/11 11:20:01;;;;;;;1.33;1.20;;;;;;;30.24;33.24;94837.38;5071532;28;20187;-79
2022/07/11 11:22:28;;;;;;;1.00;1.00;;;;;;;30.19;33.31;94840.00;5069192;28;20187;-82
2022/07/11 11:24:57;;;;;;;1.02;1.02;;;;;;;30.11;33.95;94831.75;5070368;28;20186;-80
2022/07/11 11:27:26;;;;;;;1.08;1.08;;;;;;;30.14;33.69;94839.13;5068188;28;20210;-79
2022/07/11 11:29:54;;;;;;;2.08;1.20;;;;;;;30.02;33.42;94820.91;5071314;28;20237;-80
2022/07/11 11:32:23;;;;;;;1.77;1.23;;;;;;;30.06;33.09;94826.47;5069838;28;20186;-80
2022/07/11 11:34:50;;;;;;;0.85;0.85;;;;;;;29.98;32.24;94838.28;5071373;28;20205;-83
2022/07/11 11:37:18;;;;;;;2.20;1.10;;;;;;;29.83;32.46;94822.34;5068778;28;20197;-79
2022/07/11 11:39:45;;;;;;;1.35;1.25;;;;;;;29.88;32.48;94840.84;5067213;28;20277;-84
2022/07/11 11:42:15;;;;;;;1.00;1.00;;;;;;;29.84;32.46;94839.78;5070597;28;20195;-81
2022/07/11 11:44:51;;;;;;;2.05;1.20;;;;;;;29.79;33.00;94832.63;5066379;28;20195;-83
2022/07/11 11:47:19;;;;;;;1.38;1.10;;;;;;;29.75;32.33;94844.75;5066522;28;20291;-79